Terminal Aerodrome Forecast
Issued by NWS

Home | Current Version | Previous Version | Text Only | Print | Product List | Glossary On
Versions: 1 2 3 4 5 6 7 8 9 10 11 12 13
000
FTUS42 TJSJ 302300
TAFJMZ
TAF
TJMZ 302335Z 3100/3124 11006KT P6SM VCSH SCT025 BKN040 BKN100
     FM310130 07003KT P6SM -RA FEW030 SCT050 SCT100
     FM310900 00000KT P6SM FEW035 SCT120
     FM311630 11010KT P6SM VCTS SCT030CB BKN040=

USA.gov is the U.S. government's official web portal to all federal, state and local government web resources and services.